Time;durP1;ratioP1;P1;durP2;ratioP2;P2;SDS_P1;SDS_P2;PMS_P1;PMS_P2;Temp;Humidity;BMP_temperature;BMP_pressure;BME280_temperature;BME280_humidity;BME280_pressure;Samples;Min_cycle;Max_cycle;Signal;HPM_P1;HPM_P2
2023/01/08 00:01:57;;;;;;;1.20;1.10;;;;;;;;;;5033796;28;20217;-76
2023/01/08 00:04:24;;;;;;;1.33;1.10;;;;;;;;;;5033809;28;20469;-76
2023/01/08 00:06:51;;;;;;;1.10;1.00;;;;;;;;;;5035096;28;20421;-76
2023/01/08 00:09:18;;;;;;;1.55;1.20;;;;;;;;;;5033875;28;20112;-76
2023/01/08 00:11:48;;;;;;;1.35;1.20;;;;;;;;;;5026831;28;20046;-76
2023/01/08 00:14:15;;;;;;;1.38;1.15;;;;;;;;;;5013892;28;20061;-76
2023/01/08 00:16:43;;;;;;;1.08;0.98;;;;;;;;;;5013959;28;20133;-76
2023/01/08 00:19:11;;;;;;;2.95;1.30;;;;;;;;;;5013570;28;20058;-76
2023/01/08 00:21:38;;;;;;;1.42;1.10;;;;;;;;;;5013335;28;20430;-76
2023/01/08 00:24:05;;;;;;;1.40;1.10;;;;;;;;;;5013546;28;20667;-75
2023/01/08 00:26:32;;;;;;;1.10;1.00;;;;;;;;;;5024362;28;20063;-76
2023/01/08 00:28:59;;;;;;;2.70;1.17;;;;;;;;;;5033196;28;20136;-76
2023/01/08 00:31:26;;;;;;;3.65;1.10;;;;;;;;;;5033229;28;20060;-76
2023/01/08 00:33:55;;;;;;;1.63;1.23;;;;;;;;;;5033990;28;20056;-76
2023/01/08 00:36:22;;;;;;;1.20;1.10;;;;;;;;;;5032831;28;20505;-76
2023/01/08 00:38:49;;;;;;;1.75;1.15;;;;;;;;;;5033348;28;20478;-76
2023/01/08 00:41:16;;;;;;;1.10;1.00;;;;;;;;;;5033260;28;20407;-76
2023/01/08 00:43:43;;;;;;;2.08;1.08;;;;;;;;;;5032961;28;20064;-76
2023/01/08 00:46:10;;;;;;;1.90;1.30;;;;;;;;;;5032959;28;20079;-76
2023/01/08 00:48:37;;;;;;;1.23;1.02;;;;;;;;;;5033007;28;20049;-76
2023/01/08 00:51:06;;;;;;;1.30;1.10;;;;;;;;;;5033087;28;20126;-76
2023/01/08 00:53:33;;;;;;;1.27;1.00;;;;;;;;;;5032512;28;20068;-76
2023/01/08 00:56:01;;;;;;;1.40;1.13;;;;;;;;;;5031949;28;20067;-75
2023/01/08 00:58:28;;;;;;;1.63;1.25;;;;;;;;;;5032657;28;20057;-76
2023/01/08 01:00:55;;;;;;;1.15;1.00;;;;;;;;;;5032337;28;20063;-76
2023/01/08 01:03:22;;;;;;;1.65;1.17;;;;;;;;;;5032768;28;20136;-76
2023/01/08 01:05:49;;;;;;;1.42;1.10;;;;;;;;;;5032538;28;20490;-76
2023/01/08 01:08:18;;;;;;;1.70;1.10;;;;;;;;;;5031826;28;20058;-76
2023/01/08 01:10:45;;;;;;;1.35;1.00;;;;;;;;;;5017533;28;20060;-76
2023/01/08 01:13:12;;;;;;;1.40;1.30;;;;;;;;;;5012422;28;20483;-76
2023/01/08 01:15:39;;;;;;;1.48;1.30;;;;;;;;;;5012680;28;20488;-76
2023/01/08 01:18:06;;;;;;;2.35;1.20;;;;;;;;;;5012487;28;20074;-77
2023/01/08 01:20:33;;;;;;;1.70;1.15;;;;;;;;;;5012780;28;20140;-76
2023/01/08 01:23:00;;;;;;;1.55;1.30;;;;;;;;;;5012446;28;20056;-76
2023/01/08 01:25:29;;;;;;;1.13;1.02;;;;;;;;;;5031098;28;20060;-76
2023/01/08 01:27:56;;;;;;;1.30;1.15;;;;;;;;;;5031787;28;20562;-76
2023/01/08 01:30:23;;;;;;;1.40;1.20;;;;;;;;;;5032212;28;20483;-76
2023/01/08 01:32:50;;;;;;;1.48;1.17;;;;;;;;;;5031839;28;20050;-76
2023/01/08 01:35:17;;;;;;;1.80;1.30;;;;;;;;;;5032049;28;20643;-76
2023/01/08 01:37:44;;;;;;;1.50;1.25;;;;;;;;;;5031687;28;20073;-76
2023/01/08 01:40:11;;;;;;;1.33;1.10;;;;;;;;;;5028387;28;20136;-76
2023/01/08 01:42:40;;;;;;;1.50;1.40;;;;;;;;;;5012194;28;20060;-76
2023/01/08 01:45:12;;;;;;;1.33;1.10;;;;;;;;;;5012151;28;20467;-76
2023/01/08 01:47:39;;;;;;;2.15;1.30;;;;;;;;;;5012159;28;20249;-76
2023/01/08 01:50:08;;;;;;;1.33;1.23;;;14.30;75.10;;;;;;5023721;28;20060;-76
2023/01/08 01:52:36;;;;;;;1.20;1.10;;;14.30;75.50;;;;;;5031362;28;20056;-76
2023/01/08 01:55:04;;;;;;;1.23;1.10;;;;;;;;;;5031077;28;20045;-76
2023/01/08 01:57:31;;;;;;;1.30;1.15;;;;;;;;;;5031662;28;20046;-76
2023/01/08 01:59:59;;;;;;;1.42;1.20;;;;;;;;;;5031577;28;20079;-76
2023/01/08 02:02:26;;;;;;;1.52;1.20;;;;;;;;;;5031666;28;20057;-75
2023/01/08 02:04:53;;;;;;;1.10;1.00;;;;;;;;;;5031647;28;20053;-76
2023/01/08 02:07:22;;;;;;;1.27;1.00;;;;;;;;;;5031246;28;20133;-76
2023/01/08 02:09:51;;;;;;;1.42;1.15;;;14.30;75.60;;;;;;5022790;28;20406;-76
2023/01/08 02:12:20;;;;;;;1.33;1.20;;;14.20;75.50;;;;;;5011504;28;20072;-76
2023/01/08 02:14:49;;;;;;;1.30;1.20;;;;;;;;;;5011463;28;20137;-76
2023/01/08 02:17:18;;;;;;;1.10;1.00;;;;;;;;;;5011714;28;20057;-75
2023/01/08 02:19:46;;;;;;;1.70;1.10;;;;;;;;;;5011495;28;20102;-76
2023/01/08 02:22:15;;;;;;;1.42;1.33;;;;;;;;;;5011271;28;20137;-76
2023/01/08 02:24:46;;;;;;;1.17;1.00;;;;;;;;;;5021910;28;20063;-76
2023/01/08 02:27:14;;;;;;;1.15;1.05;;;;;;;;;;5030850;28;20236;-76
2023/01/08 02:29:41;;;;;;;2.33;1.33;;;;;;;;;;5022803;28;20056;-77
2023/01/08 02:32:09;;;;;;;1.50;1.25;;;;;;;;;;5011349;28;20049;-77
2023/01/08 02:34:36;;;;;;;1.30;1.20;;;;;;;;;;5011194;28;20082;-77
2023/01/08 02:37:03;;;;;;;1.20;1.10;;;;;;;;;;5021205;28;20053;-77
2023/01/08 02:39:33;;;;;;;1.13;1.02;;;;;;;;;;5030544;28;20067;-77
2023/01/08 02:42:05;;;;;;;1.40;1.17;;;14.20;75.70;;;;;;5030878;28;20049;-77
2023/01/08 02:44:35;;;;;;;1.50;1.20;;;;;;;;;;5030826;28;20049;-77
2023/01/08 02:47:02;;;;;;;1.02;1.00;;;;;;;;;;5030942;28;20061;-77
2023/01/08 02:49:29;;;;;;;1.20;1.00;;;;;;;;;;5030783;28;20186;-77
2023/01/08 02:51:56;;;;;;;1.20;1.10;;;;;;;;;;5030610;28;20053;-77
2023/01/08 02:54:24;;;;;;;1.30;1.20;;;14.20;73.90;;;;;;5029826;28;20053;-77
2023/01/08 02:56:53;;;;;;;1.17;1.00;;;14.10;75.80;;;;;;5030479;28;20053;-77
2023/01/08 02:59:20;;;;;;;1.48;1.05;;;;;;;;;;5030746;28;20140;-77
2023/01/08 03:01:48;;;;;;;1.80;1.10;;;;;;;;;;5030386;28;20071;-77
2023/01/08 03:04:16;;;;;;;1.15;1.02;;;14.10;73.60;;;;;;5030231;28;20049;-77
2023/01/08 03:06:43;;;;;;;1.30;1.10;;;;;;;;;;5029751;28;20091;-77
2023/01/08 03:09:11;;;;;;;1.85;1.20;;;;;;;;;;5010692;28;20671;-77
2023/01/08 03:11:38;;;;;;;1.70;1.10;;;;;;;;;;5010735;28;20561;-77
2023/01/08 03:14:08;;;;;;;2.42;1.20;;;14.10;75.90;;;;;;5010125;28;20570;-77
2023/01/08 03:16:36;;;;;;;4.55;1.48;;;;;;;;;;5010495;28;20488;-77
2023/01/08 03:19:05;;;;;;;1.67;1.20;;;;;;;;;;5010298;28;20180;-76
2023/01/08 03:21:32;;;;;;;2.28;1.13;;;;;;;;;;5013534;28;20072;-77
2023/01/08 03:23:59;;;;;;;1.70;1.10;;;;;;;;;;5029959;28;20053;-77
2023/01/08 03:26:27;;;;;;;1.98;1.10;;;;;;;;;;5030058;28;20406;-77
2023/01/08 03:28:54;;;;;;;1.45;1.05;;;;;;;;;;5029976;28;20457;-77
2023/01/08 03:31:21;;;;;;;1.75;1.08;;;;;;;;;;5029164;28;20053;-77
2023/01/08 03:33:48;;;;;;;1.55;1.10;;;;;;;;;;5029528;28;20046;-77
2023/01/08 03:36:17;;;;;;;1.65;1.10;;;;;;;;;;5028127;28;20069;-77
2023/01/08 03:38:46;;;;;;;2.13;1.20;;;14.10;76.10;;;;;;5029628;28;20061;-77
2023/01/08 03:41:14;;;;;;;1.50;1.20;;;;;;;;;;5030021;28;20103;-77
2023/01/08 03:43:41;;;;;;;1.10;1.00;;;;;;;;;;5029312;28;20153;-77
2023/01/08 03:46:09;;;;;;;2.13;1.08;;;;;;;;;;5029959;28;20054;-77
2023/01/08 03:48:36;;;;;;;1.15;1.02;;;;;;;;;;5029795;28;20136;-77
2023/01/08 03:51:03;;;;;;;1.67;1.20;;;;;;;;;;5029419;28;20049;-77
2023/01/08 03:53:31;;;;;;;1.40;1.08;;;;;;;;;;5029403;28;20053;-77
2023/01/08 03:55:59;;;;;;;1.77;1.00;;;;;;;;;;5030710;28;20048;-77
2023/01/08 03:58:26;;;;;;;1.50;1.10;;;;;;;;;;5029718;28;20053;-77
2023/01/08 04:00:53;;;;;;;1.35;1.00;;;;;;;;;;5029758;28;20057;-77
2023/01/08 04:03:20;;;;;;;1.48;1.00;;;;;;;;;;5029428;28;20045;-77
2023/01/08 04:05:47;;;;;;;1.35;1.00;;;;;;;;;;5019900;28;20056;-77
2023/01/08 04:08:14;;;;;;;1.05;0.95;;;;;;;;;;5009723;28;20058;-77
2023/01/08 04:10:42;;;;;;;2.15;1.15;;;;;;;;;;5009769;28;20156;-77
2023/01/08 04:13:10;;;;;;;1.52;1.00;;;;;;;;;;5009361;28;20060;-78
2023/01/08 04:15:37;;;;;;;1.60;1.05;;;;;;;;;;5010033;28;20064;-77
2023/01/08 04:18:04;;;;;;;2.22;1.52;;;;;;;;;;5015686;28;20053;-77
2023/01/08 04:20:31;;;;;;;1.10;1.00;;;;;;;;;;5029112;28;20045;-77
2023/01/08 04:22:58;;;;;;;1.58;1.00;;;;;;;;;;5029415;28;20054;-78
2023/01/08 04:25:25;;;;;;;1.50;1.10;;;;;;;;;;5029547;28;20148;-77
2023/01/08 04:27:53;;;;;;;1.30;0.93;;;;;;;;;;5029435;28;20065;-77
2023/01/08 04:30:20;;;;;;;1.60;1.00;;;;;;;;;;5029473;28;20064;-78
2023/01/08 04:32:47;;;;;;;1.15;1.00;;;;;;;;;;5029320;28;20042;-77
2023/01/08 04:35:14;;;;;;;1.48;1.17;;;;;;;;;;5016031;28;20058;-77
2023/01/08 04:37:41;;;;;;;1.10;0.90;;;;;;;;;;5024863;28;20067;-77
2023/01/08 04:40:09;;;;;;;0.88;0.88;;;;;;;;;;5029183;28;20059;-77
2023/01/08 04:42:36;;;;;;;1.10;1.00;;;;;;;;;;5029566;28;20049;-77
2023/01/08 04:45:05;;;;;;;0.90;0.90;;;;;;;;;;5033209;28;20140;-77
2023/01/08 04:47:32;;;;;;;2.03;1.10;;;;;;;;;;5033104;28;20054;-77
2023/01/08 04:49:59;;;;;;;1.73;1.10;;;;;;;;;;5032315;28;20059;-77
2023/01/08 04:52:28;;;;;;;1.10;1.00;;;;;;;;;;5033973;28;20045;-77
2023/01/08 04:54:55;;;;;;;1.30;1.10;;;;;;;;;;5032758;28;20511;-77
2023/01/08 04:57:22;;;;;;;1.10;1.00;;;;;;;;;;5033081;28;20498;-77
2023/01/08 04:59:49;;;;;;;1.63;0.90;;;;;;;;;;5032736;28;20514;-78
2023/01/08 05:02:17;;;;;;;1.27;1.00;;;;;;;;;;5031691;28;20520;-77
2023/01/08 05:04:45;;;;;;;1.20;1.00;;;;;;;;;;5032707;28;20406;-77
2023/01/08 05:07:12;;;;;;;1.73;1.20;;;;;;;;;;5032657;28;20081;-77
2023/01/08 05:09:39;;;;;;;1.08;0.93;;;;;;;;;;5032310;28;20050;-77
2023/01/08 05:12:06;;;;;;;1.45;1.15;;;;;;;;;;5032627;28;20057;-77
2023/01/08 05:14:33;;;;;;;1.65;1.10;;;;;;;;;;5030623;28;20046;-77
2023/01/08 05:17:00;;;;;;;1.30;1.08;;;;;;;;;;5031602;28;20057;-77
2023/01/08 05:19:28;;;;;;;1.75;1.13;;;;;;;;;;5032622;28;20053;-77
2023/01/08 05:21:56;;;;;;;1.00;0.90;;;;;;;;;;5032391;28;20099;-78
2023/01/08 05:24:23;;;;;;;1.30;1.20;;;;;;;;;;5032254;28;20088;-77
2023/01/08 05:26:50;;;;;;;1.20;1.10;;;;;;;;;;5032309;28;20417;-77
2023/01/08 05:29:17;;;;;;;1.30;1.10;;;;;;;;;;5032298;28;20136;-77
2023/01/08 05:31:45;;;;;;;1.20;1.10;;;;;;;;;;5031687;28;20061;-77
2023/01/08 05:34:12;;;;;;;1.48;1.08;;;;;;;;;;5031653;28;20124;-77
2023/01/08 05:36:40;;;;;;;1.40;1.10;;;;;;;;;;5031862;28;20046;-77
2023/01/08 05:39:07;;;;;;;1.92;0.98;;;;;;;;;;5032290;28;20049;-77
2023/01/08 05:41:34;;;;;;;1.10;0.95;;;;;;;;;;5032076;28;20063;-78
2023/01/08 05:44:01;;;;;;;1.55;1.20;;;;;;;;;;5032732;28;20056;-77
2023/01/08 05:46:28;;;;;;;1.50;1.00;;;;;;;;;;5024790;28;20062;-77
2023/01/08 05:48:56;;;;;;;1.00;0.90;;;;;;;;;;5014315;28;20509;-77
2023/01/08 05:51:23;;;;;;;1.30;0.90;;;;;;;;;;5031885;28;20058;-77
2023/01/08 05:53:51;;;;;;;1.10;1.00;;;;;;;;;;5031235;28;20088;-77
2023/01/08 05:56:18;;;;;;;1.10;1.00;;;;;;;;;;5031963;28;20583;-77
2023/01/08 05:58:45;;;;;;;1.05;0.90;;;;;;;;;;5031679;28;20387;-77
2023/01/08 06:01:14;;;;;;;1.00;0.90;;;;;;;;;;5030973;28;20640;-77
2023/01/08 06:03:41;;;;;;;2.03;0.98;;;;;;;;;;5031088;28;20081;-77
2023/01/08 06:06:08;;;;;;;0.90;0.90;;;;;;;;;;5031847;28;20053;-77
2023/01/08 06:08:35;;;;;;;1.20;1.00;;;;;;;;;;5031356;28;20085;-77
2023/01/08 06:11:05;;;;;;;1.80;1.10;;;;;;;;;;5031507;28;20059;-77
2023/01/08 06:13:32;;;;;;;1.33;1.10;;;;;;;;;;5030673;28;20053;-77
2023/01/08 06:15:59;;;;;;;4.07;1.17;;;;;;;;;;5031212;28;20057;-77
2023/01/08 06:18:27;;;;;;;1.10;1.00;;;;;;;;;;5032489;28;20056;-77
2023/01/08 06:20:54;;;;;;;1.30;1.00;;;;;;;;;;5031452;28;20566;-77
2023/01/08 06:23:21;;;;;;;1.60;1.00;;;;;;;;;;5031203;28;20490;-77
2023/01/08 06:25:52;;;;;;;1.38;0.95;;;;;;;;;;5030552;28;20053;-77
2023/01/08 06:28:20;;;;;;;0.95;0.95;;;;;;;;;;5011426;28;20065;-77
2023/01/08 06:30:47;;;;;;;1.27;1.08;;;;;;;;;;5011471;28;20385;-77
2023/01/08 06:33:14;;;;;;;1.25;1.10;;;;;;;;;;5010787;28;20483;-77
2023/01/08 06:35:41;;;;;;;1.23;1.05;;;;;;;;;;5011493;28;20411;-77
2023/01/08 06:38:08;;;;;;;1.45;1.10;;;;;;;;;;5029654;28;20418;-77
2023/01/08 06:40:35;;;;;;;1.00;0.90;;;;;;;;;;5030543;28;20773;-77
2023/01/08 06:43:03;;;;;;;2.05;1.00;;;;;;;;;;5030706;28;20079;-77
2023/01/08 06:45:31;;;;;;;2.05;1.10;;;;;;;;;;5030543;28;20145;-77
2023/01/08 06:48:00;;;;;;;2.28;1.20;;;;;;;;;;5030678;28;20059;-77
2023/01/08 06:50:28;;;;;;;1.42;1.00;;;;;;;;;;5030741;28;20056;-77
2023/01/08 06:52:55;;;;;;;1.27;1.00;;;;;;;;;;5029296;28;20076;-77
2023/01/08 06:55:22;;;;;;;2.20;1.00;;;;;;;;;;5019731;28;20129;-77
2023/01/08 06:57:49;;;;;;;1.55;1.10;;;;;;;;;;5030485;28;20136;-77
2023/01/08 07:00:16;;;;;;;1.35;1.00;;;;;;;;;;5030764;28;20061;-77
2023/01/08 07:02:45;;;;;;;2.55;1.10;;;;;;;;;;5030380;28;20088;-77
2023/01/08 07:05:12;;;;;;;0.93;0.85;;;;;;;;;;5029954;28;20050;-77
2023/01/08 07:07:39;;;;;;;1.63;1.00;;;;;;;;;;5020867;28;20141;-78
2023/01/08 07:10:06;;;;;;;1.42;1.33;;;;;;;;;;5019520;28;20056;-77
2023/01/08 07:12:33;;;;;;;1.08;0.98;;;;;;;;;;5019560;28;20522;-77
2023/01/08 07:15:00;;;;;;;1.10;0.90;;;;;;;;;;5020711;28;20057;-77
2023/01/08 07:17:27;;;;;;;1.00;0.90;;;;;;;;;;5021905;28;20056;-77
2023/01/08 07:19:56;;;;;;;1.33;1.00;;;;;;;;;;5018841;28;20132;-77
2023/01/08 07:22:24;;;;;;;1.17;1.02;;;;;;;;;;5030180;28;20053;-77
2023/01/08 07:24:51;;;;;;;1.98;1.00;;;;;;;;;;5029697;28;20084;-78
2023/01/08 07:27:18;;;;;;;1.17;1.08;;;;;;;;;;5030356;28;20064;-77
2023/01/08 07:29:45;;;;;;;1.75;1.00;;;;;;;;;;5031280;28;20072;-77
2023/01/08 07:32:12;;;;;;;1.50;1.10;;;;;;;;;;5029742;28;20128;-77
2023/01/08 07:34:39;;;;;;;1.45;1.00;;;;;;;;;;5018478;28;20052;-78
2023/01/08 07:37:08;;;;;;;1.70;1.10;;;;;;;;;;5024877;28;20064;-77
2023/01/08 07:39:35;;;;;;;1.10;1.00;;;;;;;;;;5010229;28;20054;-77
2023/01/08 07:42:02;;;;;;;1.63;1.00;;;;;;;;;;5026779;28;20057;-77
2023/01/08 07:44:29;;;;;;;1.20;1.10;;;;;;;;;;5025168;28;20041;-77
2023/01/08 07:46:56;;;;;;;1.55;1.10;;;;;;;;;;5030012;28;20136;-77
2023/01/08 07:49:23;;;;;;;1.45;0.82;;;;;;;;;;5029722;28;20145;-77
2023/01/08 07:51:51;;;;;;;1.10;1.00;;;;;;;;;;5030675;28;20051;-78
2023/01/08 07:54:19;;;;;;;2.33;1.10;;;;;;;;;;5029481;28;20487;-77
2023/01/08 07:56:46;;;;;;;0.90;0.90;;;;;;;;;;5029676;28;20493;-78
2023/01/08 07:59:13;;;;;;;1.00;0.90;;;;;;;;;;5029384;28;20146;-78
2023/01/08 08:01:41;;;;;;;1.58;1.10;;;;;;;;;;5010837;28;20128;-79
2023/01/08 08:04:08;;;;;;;1.00;0.90;;;;;;;;;;5024488;28;20050;-77
2023/01/08 08:06:35;;;;;;;1.92;1.00;;;;;;;;;;5020653;28;20053;-77
2023/01/08 08:09:02;;;;;;;1.63;1.02;;;;;;;;;;5030634;28;20063;-77
2023/01/08 08:11:31;;;;;;;2.72;1.05;;;;;;;;;;5029144;28;20060;-78
2023/01/08 08:13:58;;;;;;;2.50;1.10;;;;;;;;;;5029268;28;20051;-78
2023/01/08 08:16:25;;;;;;;2.05;1.02;;;;;;;;;;5029614;28;20049;-78
2023/01/08 08:18:52;;;;;;;2.53;1.10;;;;;;;;;;5019497;28;20056;-77
2023/01/08 08:21:19;;;;;;;1.80;1.08;;;;;;;;;;5014268;28;20063;-78
2023/01/08 08:23:46;;;;;;;1.90;1.00;;;;;;;;;;5013553;28;20149;-78
2023/01/08 08:26:13;;;;;;;1.02;0.90;;;;;;;;;;5013731;28;20050;-78
2023/01/08 08:28:41;;;;;;;1.55;1.00;;;;;;;;;;5013511;28;20132;-78
2023/01/08 08:31:08;;;;;;;1.60;1.10;;;;;;;;;;5022353;28;20044;-77
2023/01/08 08:33:35;;;;;;;1.38;1.00;;;;;;;;;;5019143;28;20056;-78
2023/01/08 08:36:02;;;;;;;2.47;1.02;;;;;;;;;;5024877;28;20057;-78
2023/01/08 08:38:30;;;;;;;2.72;1.15;;;;;;;;;;5022996;28;20133;-78
2023/01/08 08:40:57;;;;;;;1.00;0.88;;;;;;;;;;5023507;28;20129;-78
2023/01/08 08:43:24;;;;;;;2.55;1.00;;;;;;;;;;5013152;28;20136;-78
2023/01/08 08:45:52;;;;;;;1.30;1.00;;;;;;;;;;5022987;28;20060;-77
2023/01/08 08:48:19;;;;;;;1.13;1.00;;;;;;;;;;5025852;28;20060;-77
2023/01/08 08:50:46;;;;;;;2.28;1.10;;;;;;;;;;5022939;28;20049;-78
2023/01/08 08:53:13;;;;;;;1.02;0.80;;;;;;;;;;5024136;28;20510;-78
2023/01/08 08:55:41;;;;;;;1.30;1.00;;;;;;;;;;5021001;28;20249;-77
2023/01/08 08:58:10;;;;;;;0.80;0.80;;;;;;;;;;5012663;28;20089;-78
2023/01/08 09:00:37;;;;;;;1.25;0.82;;;;;;;;;;5029582;28;20061;-78
2023/01/08 09:03:05;;;;;;;1.67;0.95;;;;;;;;;;5032751;28;20053;-77
2023/01/08 09:05:34;;;;;;;1.33;0.82;;;;;;;;;;5032220;28;20049;-77
2023/01/08 09:08:01;;;;;;;1.92;0.95;;;;;;;;;;5028734;28;20281;-78
2023/01/08 09:10:28;;;;;;;2.75;0.88;;;;;;;;;;5032321;28;20409;-78
2023/01/08 09:12:55;;;;;;;1.73;1.10;;;;;;;;;;5032578;28;20573;-77
2023/01/08 09:15:22;;;;;;;3.08;1.15;;;;;;;;;;5032484;28;20513;-78
2023/01/08 09:17:53;;;;;;;2.03;1.40;;;;;;;;;;5032380;28;20504;-77
2023/01/08 09:20:21;;;;;;;1.08;0.90;;;;;;;;;;5020553;28;20133;-77
2023/01/08 09:22:48;;;;;;;1.48;1.08;;;;;;;;;;5013324;28;20133;-78
2023/01/08 09:25:15;;;;;;;1.58;1.10;;;;;;;;;;5012848;28;20064;-78
2023/01/08 09:27:42;;;;;;;2.00;1.10;;;;;;;;;;5012624;28;20132;-77
2023/01/08 09:30:10;;;;;;;2.33;1.30;;;;;;;;;;5011993;28;20058;-78
2023/01/08 09:32:37;;;;;;;1.70;1.13;;;;;;;;;;5012428;28;20056;-79
2023/01/08 09:35:04;;;;;;;1.75;0.90;;;;;;;;;;5022473;28;20045;-77
2023/01/08 09:37:33;;;;;;;1.60;1.00;;;;;;;;;;5018769;28;20462;-78
2023/01/08 09:40:00;;;;;;;1.83;1.08;;;;;;;;;;5019844;28;20075;-77
2023/01/08 09:42:27;;;;;;;2.33;1.10;;;;;;;;;;5031861;28;20410;-78
2023/01/08 09:44:55;;;;;;;3.00;1.20;;;;;;;;;;5032155;28;20075;-78
2023/01/08 09:47:24;;;;;;;1.45;0.93;;;14.80;75.10;;;;;;5032037;28;20136;-77
2023/01/08 09:49:51;;;;;;;2.10;1.00;;;;;;;;;;5031895;28;20056;-78
2023/01/08 09:52:18;;;;;;;1.13;0.88;;;;;;;;;;5023818;28;20056;-77
2023/01/08 09:54:47;;;;;;;1.48;1.00;;;;;;;;;;5011959;28;20045;-77
2023/01/08 09:57:14;;;;;;;1.67;1.00;;;;;;;;;;5011834;28;20088;-77
2023/01/08 09:59:41;;;;;;;2.38;1.00;;;;;;;;;;5025617;28;20425;-77
2023/01/08 10:02:11;;;;;;;1.30;0.90;;;;;;;;;;5031922;28;20483;-76
2023/01/08 10:04:38;;;;;;;1.20;1.00;;;;;;;;;;5031591;28;20053;-76
2023/01/08 10:07:06;;;;;;;1.58;0.90;;;;;;;;;;5031921;28;20140;-76
2023/01/08 10:09:33;;;;;;;1.95;1.10;;;;;;;;;;5032208;28;20045;-76
2023/01/08 10:12:03;;;;;;;2.05;1.00;;;;;;;;;;5031457;28;20056;-76
2023/01/08 10:14:30;;;;;;;3.13;1.05;;;14.70;74.10;;;;;;5013345;28;20050;-76
2023/01/08 10:16:58;;;;;;;2.90;1.05;;;;;;;;;;5011598;28;20060;-76
2023/01/08 10:19:25;;;;;;;2.80;1.33;;;;;;;;;;5011705;28;20525;-76
2023/01/08 10:21:52;;;;;;;2.15;1.02;;;;;;;;;;5012459;28;20476;-76
2023/01/08 10:24:30;;;;;;;2.40;1.00;;;;;;;;;;5011128;28;20454;-76
2023/01/08 10:27:06;;;;;;;2.03;0.85;;;;;;;;;;5011521;28;20141;-76
2023/01/08 10:29:34;;;;;;;0.98;0.90;;;;;;;;;;5016506;28;20049;-76
2023/01/08 10:32:04;;;;;;;1.77;1.05;;;;;;;;;;5030958;28;20057;-78
2023/01/08 10:34:32;;;;;;;2.15;0.90;;;;;;;;;;5030962;28;20061;-76
2023/01/08 10:36:59;;;;;;;2.28;1.05;;;;;;;;;;5030615;28;20065;-76
2023/01/08 10:39:27;;;;;;;2.65;1.25;;;;;;;;;;5031109;28;20056;-76
2023/01/08 10:41:56;;;;;;;2.25;1.10;;;14.60;73.30;;;;;;5025766;28;20483;-76
2023/01/08 10:44:24;;;;;;;1.45;0.90;;;;;;;;;;5010890;28;20064;-76
2023/01/08 10:46:53;;;;;;;2.63;1.00;;;;;;;;;;5011191;28;20464;-76
2023/01/08 10:49:27;;;;;;;2.78;1.40;;;;;;;;;;5016549;28;20060;-77
2023/01/08 10:51:54;;;;;;;1.52;0.90;;;;;;;;;;5025503;28;20494;-76
2023/01/08 10:54:27;;;;;;;1.08;0.90;;;;;;;;;;5025281;28;20059;-77
2023/01/08 10:56:54;;;;;;;3.35;1.10;;;;;;;;;;5022525;28;20049;-76
2023/01/08 10:59:21;;;;;;;1.95;1.00;;;;;;;;;;5025200;28;20057;-77
2023/01/08 11:01:50;;;;;;;2.15;0.90;;;;;;;;;;5010658;28;20112;-77
2023/01/08 11:04:22;;;;;;;5.45;1.20;;;;;;;;;;5010780;28;20058;-76
2023/01/08 11:06:49;;;;;;;1.58;1.00;;;;;;;;;;5010718;28;20487;-77
2023/01/08 11:09:18;;;;;;;1.42;0.90;;;;;;;;;;5010934;28;20054;-77
2023/01/08 11:11:45;;;;;;;2.33;1.10;;;;;;;;;;5011109;28;20089;-77
2023/01/08 11:14:15;;;;;;;1.48;0.80;;;14.70;75.20;;;;;;5030181;28;20128;-77
2023/01/08 11:16:42;;;;;;;1.95;1.10;;;;;;;;;;5030181;28;20438;-78
2023/01/08 11:19:16;;;;;;;2.47;0.98;;;;;;;;;;5030216;28;20061;-77
2023/01/08 11:21:43;;;;;;;1.17;0.80;;;;;;;;;;5030212;28;20469;-77
2023/01/08 11:24:16;;;;;;;2.38;1.10;;;;;;;;;;5028516;28;20512;-77
2023/01/08 11:26:44;;;;;;;3.17;1.50;;;;;;;;;;5026183;28;20145;-77
2023/01/08 11:29:16;;;;;;;2.90;0.90;;;;;;;;;;5029006;28;20134;-77
2023/01/08 11:31:44;;;;;;;2.67;1.15;;;;;;;;;;5026710;28;20054;-77
2023/01/08 11:34:13;;;;;;;2.22;1.08;;;;;;;;;;5019864;28;20045;-77
2023/01/08 11:36:44;;;;;;;2.28;1.00;;;14.80;75.20;;;;;;5016224;28;20539;-77
2023/01/08 11:39:11;;;;;;;1.42;1.00;;;;;;;;;;5017316;28;20050;-77
2023/01/08 11:41:42;;;;;;;2.97;1.40;;;;;;;;;;5018330;28;20046;-76
2023/01/08 11:44:13;;;;;;;3.25;1.05;;;;;;;;;;5014011;28;20054;-77
2023/01/08 11:46:42;;;;;;;2.92;1.00;;;14.90;75.20;;;;;;5019963;28;20056;-77
2023/01/08 11:49:13;;;;;;;2.75;1.10;;;;;;;;;;5028987;28;20049;-78
2023/01/08 11:51:54;;;;;;;1.40;0.90;;;;;;;;;;5019633;28;20054;-77
2023/01/08 11:54:28;;;;;;;2.35;1.08;;;14.90;75.30;;;;;;5018427;28;20388;-79
2023/01/08 11:56:59;;;;;;;1.95;1.08;;;;;;;;;;5018861;28;20053;-76
2023/01/08 11:59:29;;;;;;;2.95;1.10;;;14.80;75.10;;;;;;5020904;28;20398;-77
2023/01/08 12:02:00;;;;;;;3.50;1.25;;;14.80;75.20;;;;;;5021049;28;20054;-77
2023/01/08 12:04:42;;;;;;;2.50;0.90;;;;;;;;;;5029541;28;20478;-77
2023/01/08 12:07:11;;;;;;;1.30;1.00;;;;;;;;;;5027634;28;20055;-78
2023/01/08 12:09:39;;;;;;;1.98;1.05;;;;;;;;;;5029517;28;20529;-78
2023/01/08 12:12:10;;;;;;;3.17;1.33;;;;;;;;;;5023913;28;20079;-77
2023/01/08 12:14:40;;;;;;;2.95;1.10;;;;;;;;;;5022448;28;20042;-77
2023/01/08 12:17:26;;;;;;;2.13;1.08;;;14.80;75.40;;;;;;5009386;28;20129;-76
2023/01/08 12:20:00;;;;;;;2.05;1.08;;;14.80;75.40;;;;;;5009797;28;20085;-76
2023/01/08 12:22:35;;;;;;;2.60;1.02;;;14.80;75.30;;;;;;5009649;28;20054;-76
2023/01/08 12:25:12;;;;;;;4.70;1.13;;;;;;;;;;5009971;28;20411;-76
2023/01/08 12:27:42;;;;;;;2.40;1.30;;;14.80;75.20;;;;;;5009842;28;20072;-77
2023/01/08 12:30:16;;;;;;;3.45;1.35;;;14.70;75.20;;;;;;5022507;28;20584;-76
2023/01/08 12:32:44;;;;;;;2.22;1.05;;;;;;;;;;5029571;28;20140;-76
2023/01/08 12:35:11;;;;;;;2.90;1.20;;;;;;;;;;5022409;28;20132;-76
2023/01/08 12:37:42;;;;;;;2.83;1.20;;;;;;;;;;5017727;28;20053;-77
2023/01/08 12:40:14;;;;;;;1.48;1.00;;;14.70;73.00;;;;;;5014649;28;20056;-76
2023/01/08 12:42:42;;;;;;;2.53;1.10;;;14.70;75.10;;;;;;5009545;28;20136;-77
2023/01/08 12:45:14;;;;;;;4.70;1.08;;;;;;;;;;5038450;28;20060;-77
2023/01/08 12:47:41;;;;;;;1.58;1.00;;;;;;;;;;5029541;28;20053;-76
2023/01/08 12:50:11;;;;;;;2.65;1.00;;;;;;;;;;5025839;28;20081;-76
2023/01/08 12:52:43;;;;;;;2.65;1.30;;;14.70;75.30;;;;;;5021672;28;20053;-76
2023/01/08 12:55:17;;;;;;;1.77;1.20;;;;;;;;;;5023975;28;20085;-77
2023/01/08 12:57:45;;;;;;;2.47;0.90;;;;;;;;;;5018333;28;20462;-76
2023/01/08 13:00:18;;;;;;;2.75;1.30;;;;;;;;;;5018140;28;20046;-77
2023/01/08 13:02:49;;;;;;;1.92;1.00;;;;;;;;;;5021762;28;20075;-76
2023/01/08 13:05:29;;;;;;;2.13;1.00;;;;;;;;;;5012466;28;20054;-75
2023/01/08 13:07:58;;;;;;;2.63;1.30;;;14.60;74.10;;;;;;5037875;28;20455;-76
2023/01/08 13:10:28;;;;;;;2.75;1.00;;;;;;;;;;5028368;28;20136;-76
2023/01/08 13:12:56;;;;;;;2.80;0.98;;;;;;;;;;5012631;28;20049;-76
2023/01/08 13:15:24;;;;;;;1.88;1.10;;;;;;;;;;5012841;28;20553;-76
2023/01/08 13:17:51;;;;;;;3.65;1.17;;;;;;;;;;5028702;28;20124;-76
2023/01/08 13:20:20;;;;;;;4.30;1.30;;;;;;;;;;5012500;28;20053;-76
2023/01/08 13:22:51;;;;;;;2.70;1.40;;;;;;;;;;5012658;28;20059;-76
2023/01/08 13:25:32;;;;;;;3.17;1.20;;;;;;;;;;5013790;28;20058;-76
2023/01/08 13:27:59;;;;;;;3.58;1.20;;;;;;;;;;5013061;28;20061;-76
2023/01/08 13:30:33;;;;;;;1.90;1.10;;;;;;;;;;5012680;28;20406;-76
2023/01/08 13:33:01;;;;;;;2.22;1.00;;;;;;;;;;5012862;28;20049;-76
2023/01/08 13:35:30;;;;;;;2.75;1.20;;;;;;;;;;5012766;28;20132;-76
2023/01/08 13:38:05;;;;;;;2.70;1.25;;;;;;;;;;5020988;28;20064;-77
2023/01/08 13:40:37;;;;;;;3.85;1.35;;;;;;;;;;5018289;28;20049;-77
2023/01/08 13:43:05;;;;;;;5.80;1.30;;;;;;;;;;5027332;28;20053;-76
2023/01/08 13:45:32;;;;;;;2.58;1.10;;;;;;;;;;5031909;28;20067;-77
2023/01/08 13:48:00;;;;;;;1.73;1.30;;;;;;;;;;5018215;28;20157;-76
2023/01/08 13:50:29;;;;;;;3.38;1.20;;;;;;;;;;5020879;28;20077;-76
2023/01/08 13:52:57;;;;;;;3.88;1.20;;;;;;;;;;5012080;28;20085;-76
2023/01/08 13:55:25;;;;;;;1.45;1.00;;;;;;;;;;5013145;28;20052;-77
2023/01/08 13:57:55;;;;;;;1.80;1.10;;;14.50;75.10;;;;;;5011847;28;20058;-77
2023/01/08 14:00:23;;;;;;;2.80;1.33;;;;;;;;;;5018055;28;20049;-76
2023/01/08 14:02:50;;;;;;;3.17;1.30;;;;;;;;;;5022320;28;20140;-77
2023/01/08 14:05:22;;;;;;;3.03;1.20;;;14.50;75.20;;;;;;5020437;28;20079;-77
2023/01/08 14:07:49;;;;;;;2.47;1.20;;;;;;;;;;5022173;28;20414;-76
2023/01/08 14:10:17;;;;;;;2.97;1.17;;;;;;;;;;5011719;28;20414;-77
2023/01/08 14:12:44;;;;;;;2.92;1.63;;;;;;;;;;5011378;28;20054;-77
2023/01/08 14:15:19;;;;;;;3.65;1.08;;;;;;;;;;5026466;28;20060;-77
2023/01/08 14:17:46;;;;;;;3.03;1.13;;;;;;;;;;5020059;28;20052;-76
2023/01/08 14:20:13;;;;;;;2.47;1.15;;;;;;;;;;5032182;28;20041;-76
2023/01/08 14:22:41;;;;;;;3.65;1.17;;;;;;;;;;5014967;28;20058;-76
2023/01/08 14:25:09;;;;;;;2.55;1.23;;;;;;;;;;5011454;28;20132;-77
2023/01/08 14:27:36;;;;;;;3.63;1.23;;;;;;;;;;5015276;28;20509;-77
2023/01/08 14:30:03;;;;;;;1.73;1.13;;;;;;;;;;5030848;28;20119;-77
2023/01/08 14:32:31;;;;;;;4.57;1.10;;;;;;;;;;5014686;28;20152;-77
2023/01/08 14:34:59;;;;;;;2.38;1.08;;;;;;;;;;5028017;28;20053;-76
2023/01/08 14:37:26;;;;;;;3.08;1.23;;;;;;;;;;5024821;28;20053;-77